createdAt,value
2018-03-08T00:01:50.943Z,81.20
2018-03-08T00:04:19.104Z,80.80
2018-03-08T00:06:47.350Z,80.70
2018-03-08T00:09:15.520Z,79.50
2018-03-08T00:11:43.720Z,79.40
2018-03-08T00:14:11.901Z,79.10
2018-03-08T00:16:40.077Z,79.30
2018-03-08T00:19:08.274Z,78.60
2018-03-08T00:21:36.438Z,78.80
2018-03-08T00:24:05.395Z,78.80
2018-03-08T00:26:33.603Z,78.70
2018-03-08T00:29:01.784Z,79.10
2018-03-08T00:31:29.966Z,79.40
2018-03-08T00:33:58.136Z,79.80
2018-03-08T00:36:26.339Z,79.80
2018-03-08T00:38:55.278Z,79.80
2018-03-08T00:41:23.450Z,79.70
2018-03-08T00:43:51.633Z,79.80
2018-03-08T00:46:19.817Z,79.60
2018-03-08T00:48:48.013Z,79.60
2018-03-08T00:51:16.194Z,79.80
2018-03-08T00:53:44.400Z,79.50
2018-03-08T00:56:12.588Z,79.60
2018-03-08T00:58:40.753Z,80.00
2018-03-08T01:01:08.924Z,79.40
2018-03-08T01:03:37.105Z,79.60
2018-03-08T01:06:05.271Z,79.80
2018-03-08T01:08:33.438Z,79.90
2018-03-08T01:11:02.377Z,80.00
2018-03-08T01:13:30.576Z,80.00
2018-03-08T01:15:58.765Z,80.00
2018-03-08T01:18:27.690Z,80.10
2018-03-08T01:20:55.856Z,80.00
2018-03-08T01:23:24.039Z,80.00
2018-03-08T01:25:52.205Z,79.80
2018-03-08T01:28:20.366Z,79.90
2018-03-08T01:30:49.324Z,79.90
2018-03-08T01:33:17.518Z,79.80
2018-03-08T01:35:46.452Z,80.40
2018-03-08T01:38:14.653Z,79.60
2018-03-08T01:40:42.828Z,79.00
2018-03-08T01:43:10.998Z,78.90
2018-03-08T01:45:39.193Z,79.00
2018-03-08T01:48:07.382Z,79.20
2018-03-08T01:50:35.562Z,78.40
2018-03-08T01:53:03.742Z,78.10
2018-03-08T01:55:32.679Z,78.10
2018-03-08T01:58:00.859Z,78.10
2018-03-08T02:00:29.023Z,77.70
2018-03-08T02:02:57.202Z,76.90
2018-03-08T02:05:25.395Z,76.50
2018-03-08T02:07:53.614Z,75.90
2018-03-08T02:10:22.574Z,76.00
2018-03-08T02:12:50.775Z,75.90
2018-03-08T02:15:19.728Z,75.40
2018-03-08T02:17:47.923Z,75.30
2018-03-08T02:20:16.093Z,75.20
2018-03-08T02:22:44.289Z,75.40
2018-03-08T02:25:12.461Z,75.40
2018-03-08T02:27:40.640Z,75.70
2018-03-08T02:30:09.579Z,75.50
2018-03-08T02:32:37.783Z,75.50
2018-03-08T02:35:06.022Z,75.90
2018-03-08T02:37:34.185Z,75.10
2018-03-08T02:40:02.363Z,75.10
2018-03-08T02:42:30.555Z,75.20
2018-03-08T02:44:58.753Z,75.30
2018-03-08T02:47:26.950Z,74.90
2018-03-08T02:49:55.931Z,75.50
2018-03-08T02:52:24.102Z,75.40
2018-03-08T02:54:52.272Z,75.70
2018-03-08T02:57:20.462Z,76.10
2018-03-08T02:59:48.629Z,75.90
2018-03-08T03:02:16.790Z,76.70
2018-03-08T03:04:44.984Z,76.80
2018-03-08T03:07:13.146Z,77.40
2018-03-08T03:09:41.327Z,77.70
2018-03-08T03:12:09.514Z,78.00
2018-03-08T03:14:39.178Z,78.60
2018-03-08T03:17:07.376Z,78.60
2018-03-08T03:19:35.539Z,78.80
2018-03-08T03:22:03.738Z,78.90
2018-03-08T03:24:31.897Z,78.70
2018-03-08T03:27:00.083Z,79.60
2018-03-08T03:29:28.246Z,79.80
2018-03-08T03:31:56.414Z,80.50
2018-03-08T03:34:25.376Z,81.00
2018-03-08T03:36:53.590Z,81.00
2018-03-08T03:39:21.751Z,81.10
2018-03-08T03:41:49.924Z,80.30
2018-03-08T03:44:18.106Z,80.70
2018-03-08T03:46:46.278Z,81.20
2018-03-08T03:49:14.478Z,81.30
2018-03-08T03:51:42.678Z,81.30
2018-03-08T03:54:11.662Z,81.00
2018-03-08T03:56:40.599Z,80.80
2018-03-08T03:59:08.789Z,80.70
2018-03-08T04:01:36.986Z,80.90
2018-03-08T04:04:05.159Z,80.50
2018-03-08T04:06:33.335Z,81.30
2018-03-08T04:09:01.507Z,81.00
2018-03-08T04:11:29.711Z,82.00
2018-03-08T04:13:58.655Z,82.30
2018-03-08T04:16:27.617Z,82.20
2018-03-08T04:18:55.782Z,82.00
2018-03-08T04:21:23.942Z,83.00
2018-03-08T04:23:52.899Z,83.80
2018-03-08T04:26:21.069Z,83.80
2018-03-08T04:28:49.244Z,83.80
2018-03-08T04:31:17.415Z,84.00
2018-03-08T04:33:45.583Z,84.00
2018-03-08T04:36:13.759Z,84.00
2018-03-08T04:38:41.945Z,84.30
2018-03-08T04:41:10.145Z,84.70
2018-03-08T04:43:38.337Z,85.00
2018-03-08T04:46:07.267Z,86.10
2018-03-08T04:48:35.425Z,86.00
2018-03-08T04:51:03.590Z,86.50
2018-03-08T04:53:31.747Z,86.70
2018-03-08T04:56:00.709Z,86.90
2018-03-08T04:58:28.978Z,86.90
2018-03-08T05:00:57.174Z,87.30
2018-03-08T05:03:25.330Z,87.70
2018-03-08T05:05:53.498Z,87.90
2018-03-08T05:08:21.677Z,88.30
2018-03-08T05:10:49.842Z,88.80
2018-03-08T05:13:18.066Z,89.40
2018-03-08T05:15:47.020Z,89.90
2018-03-08T05:18:15.223Z,89.70
2018-03-08T05:20:43.390Z,90.00
2018-03-08T05:23:11.561Z,90.10
2018-03-08T05:25:39.748Z,90.30
2018-03-08T05:28:07.930Z,90.50
2018-03-08T05:30:36.891Z,90.70
2018-03-08T05:33:05.077Z,90.70
2018-03-08T05:35:33.269Z,90.80
2018-03-08T05:38:02.215Z,91.40
2018-03-08T05:40:30.387Z,91.40
2018-03-08T05:42:58.579Z,91.20
2018-03-08T05:45:26.746Z,91.50
2018-03-08T05:47:54.911Z,91.50
2018-03-08T05:50:23.108Z,91.30
2018-03-08T05:52:51.282Z,91.20
2018-03-08T05:55:19.451Z,91.10
2018-03-08T05:57:47.614Z,91.30
2018-03-08T06:00:15.813Z,91.30
2018-03-08T06:02:44.012Z,91.20
2018-03-08T06:05:12.953Z,91.20
2018-03-08T06:07:41.180Z,91.20
2018-03-08T06:10:10.187Z,91.30
2018-03-08T06:12:38.358Z,91.20
2018-03-08T06:15:07.303Z,91.10
2018-03-08T06:17:35.469Z,91.10
2018-03-08T06:20:03.662Z,91.10
2018-03-08T06:22:31.844Z,90.90
2018-03-08T06:25:00.024Z,90.80
2018-03-08T06:27:28.196Z,90.60
2018-03-08T06:29:56.654Z,90.40
2018-03-08T06:32:24.991Z,90.40
2018-03-08T06:34:53.179Z,90.30
2018-03-08T06:37:21.363Z,90.30
2018-03-08T06:39:49.560Z,90.20
2018-03-08T06:42:17.735Z,90.20
2018-03-08T06:44:45.980Z,90.10
2018-03-08T06:47:14.148Z,90.00
2018-03-08T06:49:42.332Z,89.90
2018-03-08T06:52:10.525Z,89.80
2018-03-08T06:54:38.699Z,89.60
2018-03-08T06:57:06.892Z,89.60
2018-03-08T06:59:35.106Z,90.00
2018-03-08T07:02:04.060Z,89.20
2018-03-08T07:04:32.247Z,89.20
2018-03-08T07:07:00.481Z,89.40
2018-03-08T07:09:28.641Z,90.10
2018-03-08T07:11:56.806Z,89.50
2018-03-08T07:14:25.031Z,88.90
2018-03-08T07:16:53.214Z,88.70
2018-03-08T07:19:21.390Z,88.00
2018-03-08T07:21:49.608Z,87.90
2018-03-08T07:24:17.820Z,87.90
2018-03-08T07:26:46.022Z,88.20
2018-03-08T07:29:14.246Z,88.50
2018-03-08T07:31:42.421Z,88.80
2018-03-08T07:34:10.620Z,88.90
2018-03-08T07:36:38.799Z,89.30
2018-03-08T07:39:06.983Z,89.40
2018-03-08T07:41:35.208Z,89.40
2018-03-08T07:44:03.379Z,89.50
2018-03-08T07:46:31.553Z,89.50
2018-03-08T07:48:59.757Z,89.30
2018-03-08T07:51:27.942Z,89.00
2018-03-08T07:53:56.103Z,88.80
2018-03-08T07:56:24.325Z,88.70
2018-03-08T07:58:52.545Z,88.70
2018-03-08T08:01:20.726Z,88.40
2018-03-08T08:03:48.934Z,88.10
2018-03-08T08:06:35.113Z,87.90
2018-03-08T08:09:10.316Z,87.60
2018-03-08T08:11:38.489Z,87.20
2018-03-08T08:14:06.690Z,86.80
2018-03-08T08:16:34.854Z,86.30
2018-03-08T08:19:03.067Z,86.00
2018-03-08T08:21:31.238Z,84.90
2018-03-08T08:23:59.448Z,84.80
2018-03-08T08:26:27.640Z,84.30
2018-03-08T08:28:55.834Z,84.00
2018-03-08T08:31:24.095Z,83.20
2018-03-08T08:33:53.955Z,82.40
2018-03-08T08:36:22.151Z,82.40
2018-03-08T08:38:50.349Z,82.20
2018-03-08T08:41:19.277Z,81.30
2018-03-08T08:43:47.434Z,81.20
2018-03-08T08:46:15.609Z,81.30
2018-03-08T08:48:43.779Z,80.70
2018-03-08T08:51:11.988Z,79.50
2018-03-08T08:53:40.171Z,78.60
2018-03-08T08:56:08.351Z,77.70
2018-03-08T08:58:36.555Z,77.20
2018-03-08T09:01:05.499Z,73.20
2018-03-08T09:03:33.682Z,73.10
2018-03-08T09:06:01.855Z,71.70
2018-03-08T09:08:30.032Z,71.40
2018-03-08T09:10:58.223Z,70.40
2018-03-08T09:13:26.388Z,69.30
2018-03-08T09:15:55.339Z,68.20
2018-03-08T09:18:23.545Z,68.10
2018-03-08T09:20:51.710Z,68.20
2018-03-08T09:23:19.877Z,66.50
2018-03-08T09:25:48.063Z,69.00
2018-03-08T09:28:16.225Z,67.40
2018-03-08T09:30:44.462Z,66.40
2018-03-08T09:33:13.407Z,63.10
2018-03-08T09:35:41.619Z,63.10
2018-03-08T09:38:09.861Z,60.70
2018-03-08T09:40:38.019Z,60.20
2018-03-08T09:43:06.227Z,59.10
2018-03-08T09:45:34.409Z,58.30
2018-03-08T09:48:02.594Z,56.30
2018-03-08T09:50:30.775Z,55.70
2018-03-08T09:52:59.723Z,53.90
2018-03-08T09:55:27.926Z,53.70
2018-03-08T09:57:56.099Z,52.40
2018-03-08T10:00:24.266Z,51.00
2018-03-08T10:02:52.455Z,51.90
2018-03-08T10:05:20.627Z,49.10
2018-03-08T10:07:48.811Z,49.80
2018-03-08T10:10:17.778Z,46.60
2018-03-08T10:12:45.958Z,46.50
2018-03-08T10:15:14.129Z,47.10
2018-03-08T10:17:42.355Z,46.30
2018-03-08T10:20:11.306Z,44.80
2018-03-08T10:22:39.479Z,44.80
2018-03-08T10:25:07.657Z,45.10
2018-03-08T10:27:35.861Z,45.10
2018-03-08T10:30:04.800Z,44.40
2018-03-08T10:32:32.987Z,44.30
2018-03-08T10:35:01.186Z,43.10
2018-03-08T10:37:30.867Z,41.30
2018-03-08T10:39:59.025Z,41.30
2018-03-08T10:44:55.417Z,40.40
2018-03-08T10:47:23.594Z,40.70
2018-03-08T10:49:51.762Z,39.50
2018-03-08T10:52:21.436Z,39.10
2018-03-08T10:54:49.638Z,39.00
2018-03-08T10:57:17.816Z,39.00
2018-03-08T10:59:45.990Z,37.40
2018-03-08T11:02:17.250Z,36.20
2018-03-08T11:04:51.065Z,37.00
2018-03-08T11:07:20.006Z,35.00
2018-03-08T11:09:48.188Z,34.90
2018-03-08T11:12:16.365Z,35.40
2018-03-08T11:14:44.568Z,34.80
2018-03-08T11:17:12.737Z,34.60
2018-03-08T11:19:40.906Z,34.60
2018-03-08T11:22:09.071Z,34.70
2018-03-08T11:24:37.267Z,34.60
2018-03-08T11:27:06.217Z,32.00
2018-03-08T11:29:34.382Z,32.30
2018-03-08T11:32:02.563Z,31.90
2018-03-08T11:34:30.750Z,30.50
2018-03-08T11:36:58.924Z,31.10
2018-03-08T11:39:27.194Z,29.40
2018-03-08T11:41:55.379Z,28.90
2018-03-08T11:44:23.569Z,29.80
2018-03-08T11:46:51.736Z,29.50
2018-03-08T11:49:21.070Z,28.60
2018-03-08T11:51:48.150Z,28.10
2018-03-08T11:54:16.350Z,26.60
2018-03-08T11:56:44.523Z,24.50
2018-03-08T11:59:12.730Z,22.60
2018-03-08T12:01:40.928Z,20.70
2018-03-08T12:04:09.865Z,19.70
2018-03-08T12:06:38.038Z,19.60
2018-03-08T12:09:06.206Z,18.60
2018-03-08T12:11:34.379Z,18.00
2018-03-08T12:14:02.571Z,16.90
2018-03-08T12:16:30.734Z,17.40
2018-03-08T12:18:58.924Z,16.70
2018-03-08T12:21:27.103Z,16.10
2018-03-08T12:23:55.275Z,15.80
2018-03-08T12:26:23.439Z,16.00
2018-03-08T12:28:54.264Z,15.60
2018-03-08T12:31:22.436Z,16.90
2018-03-08T12:33:50.611Z,15.00
2018-03-08T12:36:18.916Z,15.40
2018-03-08T12:38:47.097Z,15.50
2018-03-08T12:41:15.320Z,15.80
2018-03-08T12:43:43.672Z,15.60
2018-03-08T12:46:12.659Z,15.20
2018-03-08T12:48:40.861Z,15.10
2018-03-08T12:51:09.028Z,15.20
2018-03-08T12:53:37.203Z,14.70
2018-03-08T12:56:06.165Z,13.80
2018-03-08T12:58:34.362Z,13.70
2018-03-08T13:01:03.439Z,14.00
2018-03-08T13:03:31.738Z,13.90
2018-03-08T13:06:00.678Z,14.60
2018-03-08T13:08:29.034Z,15.10
2018-03-08T13:10:57.194Z,15.40
2018-03-08T13:13:25.379Z,15.20
2018-03-08T13:15:53.551Z,15.80
2018-03-08T13:18:21.723Z,16.10
2018-03-08T13:20:49.919Z,16.50
2018-03-08T13:23:18.113Z,17.30
2018-03-08T13:25:46.335Z,18.30
2018-03-08T13:28:14.494Z,18.30
2018-03-08T13:30:42.695Z,19.10
2018-03-08T13:33:10.894Z,20.30
2018-03-08T13:35:39.072Z,20.30
2018-03-08T13:38:07.292Z,20.30
2018-03-08T13:40:36.239Z,18.40
2018-03-08T13:43:04.442Z,18.10
2018-03-08T13:45:32.608Z,17.70
2018-03-08T13:48:00.774Z,16.70
2018-03-08T13:50:28.943Z,16.10
2018-03-08T13:52:57.115Z,18.20
2018-03-08T13:55:25.310Z,21.20
2018-03-08T13:57:53.523Z,21.90
2018-03-08T14:00:22.487Z,20.50
2018-03-08T14:02:51.414Z,19.20
2018-03-08T14:05:20.347Z,17.90
2018-03-08T14:07:48.558Z,17.90
2018-03-08T14:10:16.746Z,16.50
2018-03-08T14:12:45.698Z,17.60
2018-03-08T14:15:13.891Z,17.50
2018-03-08T14:17:42.091Z,17.70
2018-03-08T14:20:11.081Z,19.30
2018-03-08T14:22:39.219Z,19.30
2018-03-08T14:25:07.387Z,22.20
2018-03-08T14:27:35.570Z,24.20
2018-03-08T14:30:03.744Z,25.10
2018-03-08T14:32:31.908Z,23.90
2018-03-08T14:35:00.096Z,22.90
2018-03-08T14:37:28.271Z,23.00
2018-03-08T14:39:56.451Z,21.50
2018-03-08T14:42:24.626Z,19.70
2018-03-08T14:44:53.584Z,18.60
2018-03-08T14:47:21.762Z,18.50
2018-03-08T14:49:49.930Z,18.40
2018-03-08T14:52:18.113Z,19.40
2018-03-08T14:54:46.279Z,20.40
2018-03-08T14:57:14.462Z,22.20
2018-03-08T14:59:42.640Z,22.40
2018-03-08T15:02:10.802Z,22.90
2018-03-08T15:04:39.005Z,23.20
2018-03-08T15:07:07.186Z,22.60
2018-03-08T15:09:40.058Z,23.00
2018-03-08T15:12:11.221Z,22.40
2018-03-08T15:14:40.387Z,22.00
2018-03-08T15:17:08.588Z,21.90
2018-03-08T15:19:36.763Z,21.70
2018-03-08T15:22:05.715Z,21.80
2018-03-08T15:24:36.647Z,22.00
2018-03-08T15:27:05.045Z,22.40
2018-03-08T15:29:33.236Z,22.30
2018-03-08T15:32:01.430Z,22.20
2018-03-08T15:34:29.876Z,23.40
2018-03-08T15:36:59.329Z,23.70
2018-03-08T15:39:29.673Z,23.90
2018-03-08T15:41:58.643Z,25.20
2018-03-08T15:44:26.826Z,25.10
2018-03-08T15:47:00.239Z,26.50
2018-03-08T15:49:30.091Z,26.60
2018-03-08T15:51:58.272Z,26.50
2018-03-08T15:54:27.149Z,26.70
2018-03-08T15:57:00.138Z,27.90
2018-03-08T15:59:28.314Z,29.00
2018-03-08T16:01:57.819Z,30.20
2018-03-08T16:04:26.008Z,31.40
2018-03-08T16:10:36.497Z,34.00
2018-03-08T16:13:04.826Z,34.80
2018-03-08T16:15:33.786Z,37.90
2018-03-08T16:18:01.954Z,37.80
2018-03-08T16:20:30.135Z,39.10
2018-03-08T16:22:58.311Z,40.10
2018-03-08T16:25:26.507Z,41.20
2018-03-08T16:27:55.451Z,43.90
2018-03-08T16:30:23.795Z,43.90
2018-03-08T16:32:56.061Z,44.20
2018-03-08T16:35:24.446Z,45.10
2018-03-08T16:37:52.636Z,45.10
2018-03-08T16:40:20.812Z,45.80
2018-03-08T16:42:49.809Z,46.20
2018-03-08T16:45:21.480Z,47.70
2018-03-08T16:47:49.739Z,47.60
2018-03-08T16:50:17.935Z,48.30
2018-03-08T16:52:50.956Z,49.00
2018-03-08T16:55:19.383Z,49.30
2018-03-08T16:57:47.607Z,50.10
2018-03-08T17:00:15.823Z,50.40
2018-03-08T17:02:47.698Z,50.60
2018-03-08T17:05:16.929Z,51.10
2018-03-08T17:07:45.134Z,51.10
2018-03-08T17:10:14.109Z,51.90
2018-03-08T17:12:42.308Z,51.90
2018-03-08T17:15:11.242Z,53.10
2018-03-08T17:17:39.433Z,53.10
2018-03-08T17:20:07.618Z,53.80
2018-03-08T17:22:35.800Z,54.00
2018-03-08T17:25:04.008Z,55.20
2018-03-08T17:27:32.227Z,55.00
2018-03-08T17:30:00.475Z,54.80
2018-03-08T17:32:28.637Z,55.00
2018-03-08T17:34:56.825Z,55.30
2018-03-08T17:37:25.028Z,55.90
2018-03-08T17:39:53.202Z,56.30
2018-03-08T17:42:21.426Z,56.50
2018-03-08T17:44:49.647Z,56.80
2018-03-08T17:47:17.850Z,57.00
2018-03-08T17:49:46.043Z,57.20
2018-03-08T17:52:19.190Z,59.00
2018-03-08T17:54:48.539Z,58.90
2018-03-08T17:57:17.493Z,59.20
2018-03-08T17:59:45.836Z,59.10
2018-03-08T18:02:14.841Z,59.70
2018-03-08T18:04:43.436Z,60.00
2018-03-08T18:07:15.697Z,60.80
2018-03-08T18:09:44.190Z,61.30
2018-03-08T18:12:12.379Z,61.70
2018-03-08T18:14:40.569Z,61.90
2018-03-08T18:17:09.772Z,62.30
2018-03-08T18:19:37.988Z,62.30
2018-03-08T18:22:06.158Z,62.50
2018-03-08T18:24:34.349Z,62.90
2018-03-08T18:27:02.514Z,63.10
2018-03-08T18:29:30.708Z,63.30
2018-03-08T18:31:58.882Z,63.30
2018-03-08T18:34:27.150Z,63.30
2018-03-08T18:36:55.324Z,63.60
2018-03-08T18:39:23.512Z,64.00
2018-03-08T18:41:51.716Z,64.40
2018-03-08T18:44:19.896Z,65.00
2018-03-08T18:46:48.127Z,65.60
2018-03-08T18:49:16.306Z,66.00
2018-03-08T18:51:44.484Z,66.30
2018-03-08T18:54:12.698Z,66.30
2018-03-08T18:56:41.653Z,67.20
2018-03-08T18:59:09.828Z,67.10
2018-03-08T19:01:37.994Z,67.40
2018-03-08T19:04:06.183Z,67.60
2018-03-08T19:06:34.372Z,68.20
2018-03-08T19:09:02.571Z,68.80
2018-03-08T19:11:31.560Z,69.50
2018-03-08T19:14:00.513Z,69.40
2018-03-08T19:16:28.693Z,69.30
2018-03-08T19:18:56.881Z,69.60
2018-03-08T19:21:25.083Z,70.10
2018-03-08T19:23:54.046Z,71.00
2018-03-08T19:26:22.255Z,70.80
2018-03-08T19:28:51.217Z,71.30
2018-03-08T19:31:19.416Z,71.20
2018-03-08T19:33:48.383Z,71.20
2018-03-08T19:36:16.697Z,71.10
2018-03-08T19:38:44.894Z,71.30
2018-03-08T19:41:13.093Z,71.30
2018-03-08T19:43:41.301Z,71.40
2018-03-08T19:46:09.488Z,71.40
2018-03-08T19:48:38.524Z,71.60
2018-03-08T19:51:06.719Z,71.50
2018-03-08T19:53:34.904Z,71.80
2018-03-08T19:56:03.089Z,72.40
2018-03-08T19:58:31.299Z,72.70
2018-03-08T20:00:59.471Z,73.20
2018-03-08T20:03:27.662Z,73.00
2018-03-08T20:05:55.843Z,73.30
2018-03-08T20:08:24.013Z,73.50
2018-03-08T20:10:52.197Z,73.20
2018-03-08T20:13:20.379Z,73.30
2018-03-08T20:15:48.555Z,73.20
2018-03-08T20:18:16.731Z,73.50
2018-03-08T20:20:44.923Z,73.80
2018-03-08T20:23:13.133Z,74.10
2018-03-08T20:25:42.063Z,74.90
2018-03-08T20:28:10.249Z,74.70
2018-03-08T20:30:38.464Z,75.50
2018-03-08T20:33:07.411Z,75.90
2018-03-08T20:35:35.598Z,75.80
2018-03-08T20:38:03.784Z,76.10
2018-03-08T20:40:32.035Z,76.30
2018-03-08T20:43:00.211Z,76.20
2018-03-08T20:45:28.410Z,76.10
2018-03-08T20:47:56.603Z,76.10
2018-03-08T20:50:25.562Z,76.30
2018-03-08T20:52:53.736Z,75.40
2018-03-08T20:55:22.000Z,75.40
2018-03-08T20:57:50.206Z,76.50
2018-03-08T21:00:18.386Z,78.00
2018-03-08T21:02:46.590Z,78.30
2018-03-08T21:05:15.620Z,77.70
2018-03-08T21:07:43.812Z,77.60
2018-03-08T21:10:11.988Z,78.00
2018-03-08T21:12:40.190Z,78.20
2018-03-08T21:15:09.125Z,78.40
2018-03-08T21:17:37.358Z,78.50
2018-03-08T21:20:07.099Z,78.80
2018-03-08T21:22:35.281Z,78.80
2018-03-08T21:25:03.477Z,78.80
2018-03-08T21:27:31.671Z,79.00
2018-03-08T21:29:59.850Z,79.10
2018-03-08T21:32:28.825Z,78.90
2018-03-08T21:34:57.044Z,78.90
2018-03-08T21:37:25.999Z,78.60
2018-03-08T21:39:54.172Z,78.60
2018-03-08T21:42:22.367Z,78.80
2018-03-08T21:44:50.570Z,78.80
2018-03-08T21:47:19.513Z,78.90
2018-03-08T21:49:47.721Z,78.80
2018-03-08T21:52:15.912Z,79.20
2018-03-08T21:54:44.877Z,79.50
2018-03-08T21:57:13.061Z,79.40
2018-03-08T21:59:41.245Z,79.70
2018-03-08T22:02:10.208Z,80.60
2018-03-08T22:04:39.162Z,80.30
2018-03-08T22:07:07.357Z,80.40
2018-03-08T22:09:35.564Z,81.60
2018-03-08T22:12:03.748Z,81.90
2018-03-08T22:14:32.708Z,82.00
2018-03-08T22:17:00.898Z,81.80
2018-03-08T22:19:29.079Z,81.10
2018-03-08T22:21:57.274Z,80.90
2018-03-08T22:24:26.305Z,80.70
2018-03-08T22:26:54.517Z,80.30
2018-03-08T22:29:22.688Z,80.50
2018-03-08T22:31:50.886Z,80.70
2018-03-08T22:34:19.058Z,81.00
2018-03-08T22:36:47.217Z,82.40
2018-03-08T22:39:15.410Z,81.20
2018-03-08T22:41:43.590Z,81.10
2018-03-08T22:44:12.545Z,80.70
2018-03-08T22:46:40.763Z,80.70
2018-03-08T22:49:09.730Z,81.10
2018-03-08T22:51:37.914Z,81.00
2018-03-08T22:54:06.087Z,81.00
2018-03-08T22:56:34.259Z,81.20
2018-03-08T22:59:02.446Z,81.40
2018-03-08T23:04:51.005Z,81.40
2018-03-08T23:07:19.244Z,82.00
2018-03-08T23:09:47.423Z,82.00
2018-03-08T23:12:15.622Z,82.50
2018-03-08T23:14:43.818Z,82.40
2018-03-08T23:17:11.984Z,82.70
2018-03-08T23:19:41.667Z,82.70
2018-03-08T23:22:09.864Z,82.70
2018-03-08T23:24:38.063Z,82.80
2018-03-08T23:27:06.992Z,83.00
2018-03-08T23:29:35.167Z,82.80
2018-03-08T23:32:03.347Z,82.80
2018-03-08T23:34:31.507Z,82.90
2018-03-08T23:36:59.677Z,83.10
2018-03-08T23:39:27.871Z,83.20
2018-03-08T23:41:56.060Z,83.40
2018-03-08T23:44:24.269Z,83.80
2018-03-08T23:46:52.436Z,83.90
2018-03-08T23:49:20.623Z,84.20
2018-03-08T23:51:49.571Z,84.70
2018-03-08T23:54:17.843Z,84.60
2018-03-08T23:56:46.036Z,84.80
2018-03-08T23:59:14.210Z,84.90
